Savage Perseverance — WDG9117 — position and weather

sailwx.info

Track history (hours):
 
Tides and Currents Weather Stations Pressure Air Temp Water Temp Dewpoint Dewpoint Depression Visibility Wind Speed Wind Dir Waves Ship Positions

Savage Perseverance

Owner: Savage Inland Marine, Gibson, LA. More information available from US FCC via Universal Licensing System and Coast Guard Vessel Documentation Center.

Last reported at 2018-Feb-17 05:57 UTC. Time now 2018-Feb-23 02:44 UTC.
Position N 32°40' W 091°08'.

Length 26 m; draft 3.3 m.

Type: Towing. MMSI: 367584490.

Date/timePositionNaut miles runAvg speedWind from/ knotsBaromVisibWave heightAir tempDewpointWater temp
2018-Feb-17 05:57N 32°40' W 091°08'3 4.9
2018-Feb-17 05:26N 32°38' W 091°09'1 2.7
2018-Feb-17 05:00N 32°37' W 091°09'0 0.0
2018-Feb-17 04:30N 32°37' W 091°09'2 3.6
2018-Feb-17 04:01N 32°35' W 091°08'2 4.5
2018-Feb-17 03:31N 32°33' W 091°06'3 4.8
2018-Feb-17 02:56N 32°31' W 091°07'2 4.6
2018-Feb-17 02:31N 32°29' W 091°07'2 4.7
2018-Feb-17 02:01N 32°27' W 091°05'2 4.6
2018-Feb-17 01:31N 32°26' W 091°02'2 4.8
2018-Feb-17 01:01N 32°25' W 090°60'3 5.0
2018-Feb-17 00:30N 32°22' W 091°00'2 4.0
2018-Feb-17 00:01N 32°21' W 090°59'3 5.6
2018-Feb-16 23:30N 32°21' W 090°55'2 4.5
2018-Feb-16 23:01N 32°19' W 090°54'3 5.1
2018-Feb-16 22:31N 32°17' W 090°57'2 4.6
2018-Feb-16 22:01N 32°15' W 090°59'3 5.0
2018-Feb-16 21:30N 32°13' W 090°59'2 4.9
2018-Feb-16 21:00N 32°10' W 090°60'2 5.0
2018-Feb-16 20:31N 32°08' W 091°00'2 4.2
2018-Feb-16 19:58N 32°08' W 091°03'3 5.5
2018-Feb-16 19:30N 32°08' W 091°06'5 5.0
2018-Feb-16 18:31N 32°04' W 091°03'20 2.4
2018-Feb-16 10:24N 31°51' W 091°21'  
2018-Feb-13 04:05N 29°56' W 093°07'1 6.6
2018-Feb-13 04:00N 29°56' W 093°07'2 2.8
2018-Feb-13 03:23N 29°56' W 093°09'0 0.0
2018-Feb-13 02:20N 29°56' W 093°09'0 0.0
2018-Feb-13 01:11N 29°56' W 093°09'0 0.0
2018-Feb-13 00:08N 29°56' W 093°09'0 0.0
2018-Feb-12 23:59N 29°56' W 093°09'0 0.0
2018-Feb-12 23:29N 29°56' W 093°09'0 0.2
2018-Feb-12 22:43N 29°56' W 093°09'0 0.1
2018-Feb-12 22:31N 29°56' W 093°09'1 2.6
2018-Feb-12 21:57N 29°57' W 093°10'2 4.1
2018-Feb-12 21:28N 29°58' W 093°12'3 5.4
2018-Feb-12 20:55N 30°01' W 093°14'2 3.8
2018-Feb-12 20:27N 30°02' W 093°15'1 3.3
2018-Feb-12 20:00N 30°04' W 093°16'3 4.1
2018-Feb-12 19:22N 30°05' W 093°18'0 0.8
2018-Feb-12 18:59N 30°06' W 093°18'0 0.0
2018-Feb-12 18:29N 30°06' W 093°18'0 0.0
2018-Feb-12 17:59N 30°06' W 093°18'0 0.0
2018-Feb-12 17:29N 30°06' W 093°18'0 0.0
2018-Feb-12 16:38N 30°06' W 093°18'0 0.0
2018-Feb-12 16:29N 30°06' W 093°18'0 0.0
2018-Feb-12 15:59N 30°06' W 093°18'0 0.0
2018-Feb-12 15:11N 30°06' W 093°18'0 0.0
2018-Feb-12 14:53N 30°06' W 093°18'0 0.0
2018-Feb-12 13:47N 30°06' W 093°18'0 0.0
2018-Feb-12 13:11N 30°06' W 093°18'0 0.0
2018-Feb-12 12:59N 30°06' W 093°18'0 0.0
2018-Feb-12 12:29N 30°06' W 093°18'0 0.0
2018-Feb-12 11:47N 30°06' W 093°18'0 0.0
2018-Feb-12 11:23N 30°06' W 093°18'0 0.0
2018-Feb-12 10:59N 30°06' W 093°18'0 0.0
2018-Feb-12 10:29N 30°06' W 093°18'0 0.0
2018-Feb-12 09:50N 30°06' W 093°18'0 0.0
2018-Feb-12 09:20N 30°06' W 093°18'0 0.0
2018-Feb-12 08:53N 30°06' W 093°18'0 0.0
2018-Feb-12 08:02N 30°06' W 093°18'0 0.0
2018-Feb-12 07:56N 30°06' W 093°18'0 0.0
2018-Feb-12 07:20N 30°06' W 093°18'0 0.0
2018-Feb-12 06:59N 30°06' W 093°18'0 0.0
2018-Feb-12 06:11N 30°06' W 093°18'0 0.0
2018-Feb-12 05:47N 30°06' W 093°18'0 0.0
2018-Feb-12 05:29N 30°06' W 093°18'0 0.0
2018-Feb-12 04:50N 30°06' W 093°18'0 0.0
2018-Feb-12 04:23N 30°06' W 093°18'0 0.0
2018-Feb-12 03:53N 30°06' W 093°18'0 0.0
2018-Feb-12 03:29N 30°06' W 093°18'0 0.0
2018-Feb-12 02:59N 30°06' W 093°18'0 0.0
2018-Feb-12 02:29N 30°06' W 093°18'0 0.0
2018-Feb-12 01:50N 30°06' W 093°18'0 0.0
2018-Feb-12 01:29N 30°06' W 093°18'0 0.0
2018-Feb-12 00:59N 30°06' W 093°18'0 0.0
2018-Feb-12 00:29N 30°06' W 093°18'0 0.3
2018-Feb-11 23:59N 30°06' W 093°18'0 0.0
2018-Feb-11 23:29N 30°06' W 093°18'0 0.0
2018-Feb-11 22:59N 30°06' W 093°18'0 0.0
2018-Feb-11 22:29N 30°06' W 093°18'0 0.1
2018-Feb-11 21:53N 30°06' W 093°18'0 0.0
2018-Feb-11 21:29N 30°06' W 093°18'0 0.0
2018-Feb-11 20:29N 30°06' W 093°18'0 0.0
2018-Feb-11 19:59N 30°06' W 093°18'0 0.1
2018-Feb-11 19:26N 30°06' W 093°18'0 0.0
2018-Feb-11 18:59N 30°06' W 093°18'0 0.0
2018-Feb-11 18:29N 30°06' W 093°18'0 0.1
2018-Feb-11 17:59N 30°06' W 093°18'0 0.1
2018-Feb-11 17:29N 30°06' W 093°18'0 0.1
2018-Feb-11 16:59N 30°06' W 093°18'0 0.0
2018-Feb-11 16:28N 30°06' W 093°18'0 0.0
2018-Feb-11 16:00N 30°06' W 093°18'0 0.4
2018-Feb-11 15:30N 30°06' W 093°18'3 5.3
2018-Feb-11 14:59N 30°04' W 093°21'0 0.2
2018-Feb-11 14:29N 30°04' W 093°21'0 0.0
2018-Feb-11 13:59N 30°04' W 093°21'0 0.0
2018-Feb-11 13:29N 30°04' W 093°21'0 0.0
2018-Feb-11 12:59N 30°04' W 093°21'0 0.0
2018-Feb-11 12:30N 30°04' W 093°21'0 0.0
2018-Feb-11 11:59N 30°04' W 093°21'0 0.0
2018-Feb-11 11:29N 30°04' W 093°21'0 0.0
2018-Feb-11 10:59N 30°04' W 093°21'0 0.0
2018-Feb-11 10:29N 30°04' W 093°21'0 0.0
2018-Feb-11 09:59N 30°04' W 093°21'0 0.0
2018-Feb-11 09:30N 30°04' W 093°21'0 0.0
2018-Feb-11 09:00N 30°04' W 093°21'0 0.0
2018-Feb-11 08:27N 30°04' W 093°21'0 0.0
2018-Feb-11 08:00N 30°04' W 093°21'0 0.0
2018-Feb-11 07:30N 30°04' W 093°21'0 0.0
2018-Feb-11 07:00N 30°04' W 093°21'0 0.0
2018-Feb-11 06:30N 30°04' W 093°21'0 0.0
2018-Feb-11 06:00N 30°04' W 093°21'0 0.0
2018-Feb-11 05:27N 30°04' W 093°21'1 1.3
2018-Feb-11 05:00N 30°05' W 093°20'3 6.4
2018-Feb-11 04:31N 30°08' W 093°20'0 0.6
2018-Feb-11 04:00N 30°08' W 093°19'0 0.0
2018-Feb-11 03:30N 30°08' W 093°19'0 0.0
2018-Feb-11 03:00N 30°08' W 093°19'0 0.0
2018-Feb-11 02:30N 30°08' W 093°19'0 0.0
2018-Feb-11 02:00N 30°08' W 093°19'0 0.0
2018-Feb-11 01:27N 30°08' W 093°19'0 0.0
2018-Feb-11 01:00N 30°08' W 093°19'0 0.0
2018-Feb-11 00:30N 30°08' W 093°19'0 0.0
2018-Feb-11 00:00N 30°08' W 093°19'0 0.0
2018-Feb-10 23:30N 30°08' W 093°19'0 0.0
2018-Feb-10 23:00N 30°08' W 093°19'0 0.0
2018-Feb-10 22:30N 30°08' W 093°19'0 0.0
2018-Feb-10 22:00N 30°08' W 093°19'0 0.0
2018-Feb-10 21:30N 30°08' W 093°19'0 0.0
2018-Feb-10 21:00N 30°08' W 093°19'0 0.0
2018-Feb-10 20:30N 30°08' W 093°19'0 0.0
2018-Feb-10 20:00N 30°08' W 093°19'0 0.0
2018-Feb-10 19:30N 30°08' W 093°19'0 0.0
2018-Feb-10 19:00N 30°08' W 093°19'0 0.0
2018-Feb-10 18:30N 30°08' W 093°19'0 0.0
2018-Feb-10 18:00N 30°08' W 093°19'2 3.2
2018-Feb-10 17:30N 30°07' W 093°20'2 3.2
2018-Feb-10 16:58N 30°05' W 093°20'1 1.4
2018-Feb-10 16:29N 30°04' W 093°21'0 1.0
2018-Feb-10 16:00N 30°05' W 093°20'3 5.3
2018-Feb-10 15:30N 30°07' W 093°20'1 1.6
2018-Feb-10 15:01N 30°08' W 093°19'0 0.1
2018-Feb-10 14:29N 30°08' W 093°19'0 0.0
2018-Feb-10 13:59N 30°08' W 093°19'0 0.0
2018-Feb-10 13:29N 30°08' W 093°19'0 0.0
2018-Feb-10 12:59N 30°08' W 093°19'0 0.0
2018-Feb-10 12:29N 30°08' W 093°19'0 0.0
2018-Feb-10 11:59N 30°08' W 093°19'0 0.0
2018-Feb-10 11:29N 30°08' W 093°19'0 0.0
2018-Feb-10 10:59N 30°08' W 093°19'0 0.0
2018-Feb-10 10:29N 30°08' W 093°19'0 0.0
2018-Feb-10 09:59N 30°08' W 093°19'0 0.0
2018-Feb-10 09:29N 30°08' W 093°19'0 0.0
2018-Feb-10 08:59N 30°08' W 093°19'0 0.0
2018-Feb-10 08:29N 30°08' W 093°19'0 0.0
2018-Feb-10 07:59N 30°08' W 093°19'0 0.0
2018-Feb-10 07:29N 30°08' W 093°19'0 0.0
2018-Feb-10 06:59N 30°08' W 093°19'0 0.0
2018-Feb-10 06:29N 30°08' W 093°19'0 0.0
2018-Feb-10 05:59N 30°08' W 093°19'0 0.0
2018-Feb-10 05:29N 30°08' W 093°19'0 0.0
2018-Feb-10 04:59N 30°08' W 093°19'0 0.0
2018-Feb-10 04:29N 30°08' W 093°19'0 0.0
2018-Feb-10 03:59N 30°08' W 093°19'0 0.0
2018-Feb-10 03:29N 30°08' W 093°19'0 0.0
2018-Feb-10 02:59N 30°08' W 093°19'0 0.0
2018-Feb-10 02:29N 30°08' W 093°19'0 0.5
2018-Feb-10 01:59N 30°08' W 093°20'2 3.2
2018-Feb-10 01:30N 30°06' W 093°20'2 2.8
2018-Feb-10 00:58N 30°05' W 093°20'10 4.4
2018-Feb-09 22:45N 30°04' W 093°31'10 5.7
2018-Feb-09 21:00N 30°03' W 093°43'18 6.0
2018-Feb-09 18:01N 29°50' W 093°57'1 0.1
2018-Feb-09 08:31N 29°51' W 093°57'9 0.9
2018-Feb-08 22:30N 29°58' W 093°51'1 0.3
2018-Feb-08 19:00N 29°58' W 093°52'0 0.0
2018-Feb-08 18:00N 29°58' W 093°52'0 0.0
2018-Feb-08 01:30N 29°58' W 093°52'0 0.0
2018-Feb-08 00:57N 29°58' W 093°52'0 0.0
2018-Feb-08 00:31N 29°58' W 093°52'0 0.0
2018-Feb-08 00:00N 29°58' W 093°52'0 0.0
2018-Feb-07 23:30N 29°58' W 093°52'0 0.0
2018-Feb-07 23:00N 29°58' W 093°52'0 0.0
2018-Feb-07 22:27N 29°58' W 093°52'0 0.0
2018-Feb-07 22:00N 29°58' W 093°52'0 0.0
2018-Feb-07 21:30N 29°58' W 093°52'  
Track history (hours):
 
Tides and Currents Weather Stations Pressure Air Temp Water Temp Dewpoint Dewpoint Depression Visibility Wind Speed Wind Dir Waves Ship Positions

Savage Perseverance

Owner: Savage Inland Marine, Gibson, LA. More information available from US FCC via Universal Licensing System and Coast Guard Vessel Documentation Center.

Last reported at 2018-Feb-17 05:57 UTC. Time now 2018-Feb-23 02:44 UTC.
Position N 32°40' W 091°08'.

Length 26 m; draft 3.3 m.

Type: Towing. MMSI: 367584490.

Date/timePositionNaut miles runAvg speedWind from/ knotsBaromVisibWave heightAir tempDewpointWater temp
2018-Feb-17 05:57N 32°40' W 091°08'3 4.9
2018-Feb-17 05:26N 32°38' W 091°09'1 2.7
2018-Feb-17 05:00N 32°37' W 091°09'0 0.0
2018-Feb-17 04:30N 32°37' W 091°09'2 3.6
2018-Feb-17 04:01N 32°35' W 091°08'2 4.5
2018-Feb-17 03:31N 32°33' W 091°06'3 4.8
2018-Feb-17 02:56N 32°31' W 091°07'2 4.6
2018-Feb-17 02:31N 32°29' W 091°07'2 4.7
2018-Feb-17 02:01N 32°27' W 091°05'2 4.6
2018-Feb-17 01:31N 32°26' W 091°02'2 4.8
2018-Feb-17 01:01N 32°25' W 090°60'3 5.0
2018-Feb-17 00:30N 32°22' W 091°00'2 4.0
2018-Feb-17 00:01N 32°21' W 090°59'3 5.6
2018-Feb-16 23:30N 32°21' W 090°55'2 4.5
2018-Feb-16 23:01N 32°19' W 090°54'3 5.1
2018-Feb-16 22:31N 32°17' W 090°57'2 4.6
2018-Feb-16 22:01N 32°15' W 090°59'3 5.0
2018-Feb-16 21:30N 32°13' W 090°59'2 4.9
2018-Feb-16 21:00N 32°10' W 090°60'2 5.0
2018-Feb-16 20:31N 32°08' W 091°00'2 4.2
2018-Feb-16 19:58N 32°08' W 091°03'3 5.5
2018-Feb-16 19:30N 32°08' W 091°06'5 5.0
2018-Feb-16 18:31N 32°04' W 091°03'20 2.4
2018-Feb-16 10:24N 31°51' W 091°21'  
2018-Feb-13 04:05N 29°56' W 093°07'1 6.6
2018-Feb-13 04:00N 29°56' W 093°07'2 2.8
2018-Feb-13 03:23N 29°56' W 093°09'0 0.0
2018-Feb-13 02:20N 29°56' W 093°09'0 0.0
2018-Feb-13 01:11N 29°56' W 093°09'0 0.0
2018-Feb-13 00:08N 29°56' W 093°09'0 0.0
2018-Feb-12 23:59N 29°56' W 093°09'0 0.0
2018-Feb-12 23:29N 29°56' W 093°09'0 0.2
2018-Feb-12 22:43N 29°56' W 093°09'0 0.1
2018-Feb-12 22:31N 29°56' W 093°09'1 2.6
2018-Feb-12 21:57N 29°57' W 093°10'2 4.1
2018-Feb-12 21:28N 29°58' W 093°12'3 5.4
2018-Feb-12 20:55N 30°01' W 093°14'2 3.8
2018-Feb-12 20:27N 30°02' W 093°15'1 3.3
2018-Feb-12 20:00N 30°04' W 093°16'3 4.1
2018-Feb-12 19:22N 30°05' W 093°18'0 0.8
2018-Feb-12 18:59N 30°06' W 093°18'0 0.0
2018-Feb-12 18:29N 30°06' W 093°18'0 0.0
2018-Feb-12 17:59N 30°06' W 093°18'0 0.0
2018-Feb-12 17:29N 30°06' W 093°18'0 0.0
2018-Feb-12 16:38N 30°06' W 093°18'0 0.0
2018-Feb-12 16:29N 30°06' W 093°18'0 0.0
2018-Feb-12 15:59N 30°06' W 093°18'0 0.0
2018-Feb-12 15:11N 30°06' W 093°18'0 0.0
2018-Feb-12 14:53N 30°06' W 093°18'0 0.0
2018-Feb-12 13:47N 30°06' W 093°18'0 0.0
2018-Feb-12 13:11N 30°06' W 093°18'0 0.0
2018-Feb-12 12:59N 30°06' W 093°18'0 0.0
2018-Feb-12 12:29N 30°06' W 093°18'0 0.0
2018-Feb-12 11:47N 30°06' W 093°18'0 0.0
2018-Feb-12 11:23N 30°06' W 093°18'0 0.0
2018-Feb-12 10:59N 30°06' W 093°18'0 0.0
2018-Feb-12 10:29N 30°06' W 093°18'0 0.0
2018-Feb-12 09:50N 30°06' W 093°18'0 0.0
2018-Feb-12 09:20N 30°06' W 093°18'0 0.0
2018-Feb-12 08:53N 30°06' W 093°18'0 0.0
2018-Feb-12 08:02N 30°06' W 093°18'0 0.0
2018-Feb-12 07:56N 30°06' W 093°18'0 0.0
2018-Feb-12 07:20N 30°06' W 093°18'0 0.0
2018-Feb-12 06:59N 30°06' W 093°18'0 0.0
2018-Feb-12 06:11N 30°06' W 093°18'0 0.0
2018-Feb-12 05:47N 30°06' W 093°18'0 0.0
2018-Feb-12 05:29N 30°06' W 093°18'0 0.0
2018-Feb-12 04:50N 30°06' W 093°18'0 0.0
2018-Feb-12 04:23N 30°06' W 093°18'0 0.0
2018-Feb-12 03:53N 30°06' W 093°18'0 0.0
2018-Feb-12 03:29N 30°06' W 093°18'0 0.0
2018-Feb-12 02:59N 30°06' W 093°18'0 0.0
2018-Feb-12 02:29N 30°06' W 093°18'0 0.0
2018-Feb-12 01:50N 30°06' W 093°18'0 0.0
2018-Feb-12 01:29N 30°06' W 093°18'0 0.0
2018-Feb-12 00:59N 30°06' W 093°18'0 0.0
2018-Feb-12 00:29N 30°06' W 093°18'0 0.3
2018-Feb-11 23:59N 30°06' W 093°18'0 0.0
2018-Feb-11 23:29N 30°06' W 093°18'0 0.0
2018-Feb-11 22:59N 30°06' W 093°18'0 0.0
2018-Feb-11 22:29N 30°06' W 093°18'0 0.1
2018-Feb-11 21:53N 30°06' W 093°18'0 0.0
2018-Feb-11 21:29N 30°06' W 093°18'0 0.0
2018-Feb-11 20:29N 30°06' W 093°18'0 0.0
2018-Feb-11 19:59N 30°06' W 093°18'0 0.1
2018-Feb-11 19:26N 30°06' W 093°18'0 0.0
2018-Feb-11 18:59N 30°06' W 093°18'0 0.0
2018-Feb-11 18:29N 30°06' W 093°18'0 0.1
2018-Feb-11 17:59N 30°06' W 093°18'0 0.1
2018-Feb-11 17:29N 30°06' W 093°18'0 0.1
2018-Feb-11 16:59N 30°06' W 093°18'0 0.0
2018-Feb-11 16:28N 30°06' W 093°18'0 0.0
2018-Feb-11 16:00N 30°06' W 093°18'0 0.4
2018-Feb-11 15:30N 30°06' W 093°18'3 5.3
2018-Feb-11 14:59N 30°04' W 093°21'0 0.2
2018-Feb-11 14:29N 30°04' W 093°21'0 0.0
2018-Feb-11 13:59N 30°04' W 093°21'0 0.0
2018-Feb-11 13:29N 30°04' W 093°21'0 0.0
2018-Feb-11 12:59N 30°04' W 093°21'0 0.0
2018-Feb-11 12:30N 30°04' W 093°21'0 0.0
2018-Feb-11 11:59N 30°04' W 093°21'0 0.0
2018-Feb-11 11:29N 30°04' W 093°21'0 0.0
2018-Feb-11 10:59N 30°04' W 093°21'0 0.0
2018-Feb-11 10:29N 30°04' W 093°21'0 0.0
2018-Feb-11 09:59N 30°04' W 093°21'0 0.0
2018-Feb-11 09:30N 30°04' W 093°21'0 0.0
2018-Feb-11 09:00N 30°04' W 093°21'0 0.0
2018-Feb-11 08:27N 30°04' W 093°21'0 0.0
2018-Feb-11 08:00N 30°04' W 093°21'0 0.0
2018-Feb-11 07:30N 30°04' W 093°21'0 0.0
2018-Feb-11 07:00N 30°04' W 093°21'0 0.0
2018-Feb-11 06:30N 30°04' W 093°21'0 0.0
2018-Feb-11 06:00N 30°04' W 093°21'0 0.0
2018-Feb-11 05:27N 30°04' W 093°21'1 1.3
2018-Feb-11 05:00N 30°05' W 093°20'3 6.4
2018-Feb-11 04:31N 30°08' W 093°20'0 0.6
2018-Feb-11 04:00N 30°08' W 093°19'0 0.0
2018-Feb-11 03:30N 30°08' W 093°19'0 0.0
2018-Feb-11 03:00N 30°08' W 093°19'0 0.0
2018-Feb-11 02:30N 30°08' W 093°19'0 0.0
2018-Feb-11 02:00N 30°08' W 093°19'0 0.0
2018-Feb-11 01:27N 30°08' W 093°19'0 0.0
2018-Feb-11 01:00N 30°08' W 093°19'0 0.0
2018-Feb-11 00:30N 30°08' W 093°19'0 0.0
2018-Feb-11 00:00N 30°08' W 093°19'0 0.0
2018-Feb-10 23:30N 30°08' W 093°19'0 0.0
2018-Feb-10 23:00N 30°08' W 093°19'0 0.0
2018-Feb-10 22:30N 30°08' W 093°19'0 0.0
2018-Feb-10 22:00N 30°08' W 093°19'0 0.0
2018-Feb-10 21:30N 30°08' W 093°19'0 0.0
2018-Feb-10 21:00N 30°08' W 093°19'0 0.0
2018-Feb-10 20:30N 30°08' W 093°19'0 0.0
2018-Feb-10 20:00N 30°08' W 093°19'0 0.0
2018-Feb-10 19:30N 30°08' W 093°19'0 0.0
2018-Feb-10 19:00N 30°08' W 093°19'0 0.0
2018-Feb-10 18:30N 30°08' W 093°19'0 0.0
2018-Feb-10 18:00N 30°08' W 093°19'2 3.2
2018-Feb-10 17:30N 30°07' W 093°20'2 3.2
2018-Feb-10 16:58N 30°05' W 093°20'1 1.4
2018-Feb-10 16:29N 30°04' W 093°21'0 1.0
2018-Feb-10 16:00N 30°05' W 093°20'3 5.3
2018-Feb-10 15:30N 30°07' W 093°20'1 1.6
2018-Feb-10 15:01N 30°08' W 093°19'0 0.1
2018-Feb-10 14:29N 30°08' W 093°19'0 0.0
2018-Feb-10 13:59N 30°08' W 093°19'0 0.0
2018-Feb-10 13:29N 30°08' W 093°19'0 0.0
2018-Feb-10 12:59N 30°08' W 093°19'0 0.0
2018-Feb-10 12:29N 30°08' W 093°19'0 0.0
2018-Feb-10 11:59N 30°08' W 093°19'0 0.0
2018-Feb-10 11:29N 30°08' W 093°19'0 0.0
2018-Feb-10 10:59N 30°08' W 093°19'0 0.0
2018-Feb-10 10:29N 30°08' W 093°19'0 0.0
2018-Feb-10 09:59N 30°08' W 093°19'0 0.0
2018-Feb-10 09:29N 30°08' W 093°19'0 0.0
2018-Feb-10 08:59N 30°08' W 093°19'0 0.0
2018-Feb-10 08:29N 30°08' W 093°19'0 0.0
2018-Feb-10 07:59N 30°08' W 093°19'0 0.0
2018-Feb-10 07:29N 30°08' W 093°19'0 0.0
2018-Feb-10 06:59N 30°08' W 093°19'0 0.0
2018-Feb-10 06:29N 30°08' W 093°19'0 0.0
2018-Feb-10 05:59N 30°08' W 093°19'0 0.0
2018-Feb-10 05:29N 30°08' W 093°19'0 0.0
2018-Feb-10 04:59N 30°08' W 093°19'0 0.0
2018-Feb-10 04:29N 30°08' W 093°19'0 0.0
2018-Feb-10 03:59N 30°08' W 093°19'0 0.0
2018-Feb-10 03:29N 30°08' W 093°19'0 0.0
2018-Feb-10 02:59N 30°08' W 093°19'0 0.0
2018-Feb-10 02:29N 30°08' W 093°19'0 0.5
2018-Feb-10 01:59N 30°08' W 093°20'2 3.2
2018-Feb-10 01:30N 30°06' W 093°20'2 2.8
2018-Feb-10 00:58N 30°05' W 093°20'10 4.4
2018-Feb-09 22:45N 30°04' W 093°31'10 5.7
2018-Feb-09 21:00N 30°03' W 093°43'18 6.0
2018-Feb-09 18:01N 29°50' W 093°57'1 0.1
2018-Feb-09 08:31N 29°51' W 093°57'9 0.9
2018-Feb-08 22:30N 29°58' W 093°51'1 0.3
2018-Feb-08 19:00N 29°58' W 093°52'0 0.0
2018-Feb-08 18:00N 29°58' W 093°52'0 0.0
2018-Feb-08 01:30N 29°58' W 093°52'0 0.0
2018-Feb-08 00:57N 29°58' W 093°52'0 0.0
2018-Feb-08 00:31N 29°58' W 093°52'0 0.0
2018-Feb-08 00:00N 29°58' W 093°52'0 0.0
2018-Feb-07 23:30N 29°58' W 093°52'0 0.0
2018-Feb-07 23:00N 29°58' W 093°52'0 0.0
2018-Feb-07 22:27N 29°58' W 093°52'0 0.0
2018-Feb-07 22:00N 29°58' W 093°52'0 0.0
2018-Feb-07 21:30N 29°58' W 093°52'  

Dump ship's entire track history